createdAt,value
2019-01-28T00:01:23.500Z,100489.62
2019-01-28T00:03:53.387Z,100490.73
2019-01-28T00:06:23.093Z,100488.78
2019-01-28T00:08:52.848Z,100491.10
2019-01-28T00:11:22.502Z,100494.99
2019-01-28T00:13:52.331Z,100497.06
2019-01-28T00:16:22.408Z,100497.17
2019-01-28T00:18:52.158Z,100506.18
2019-01-28T00:21:22.063Z,100502.32
2019-01-28T00:23:51.824Z,100501.23
2019-01-28T00:26:21.511Z,100496.16
2019-01-28T00:28:51.635Z,100496.21
2019-01-28T00:31:22.668Z,100493.02
2019-01-28T00:33:52.573Z,100500.34
2019-01-28T00:36:23.310Z,100499.37
2019-01-28T00:38:53.181Z,100497.00
2019-01-28T00:41:23.157Z,100491.66
2019-01-28T00:43:52.969Z,100485.86
2019-01-28T00:46:22.882Z,100491.26
2019-01-28T00:48:52.914Z,100486.39
2019-01-28T00:51:22.724Z,100488.58
2019-01-28T00:53:52.578Z,100483.42
2019-01-28T00:56:22.554Z,100485.47
2019-01-28T00:58:52.490Z,100466.38
2019-01-28T01:01:22.515Z,100465.42
2019-01-28T01:03:52.303Z,100459.88
2019-01-28T01:06:22.242Z,100459.05
2019-01-28T01:08:52.022Z,100462.18
2019-01-28T01:11:21.743Z,100463.69
2019-01-28T01:13:51.633Z,100456.61
2019-01-28T01:16:21.549Z,100451.13
2019-01-28T01:18:51.178Z,100449.02
2019-01-28T01:21:21.053Z,100444.27
2019-01-28T01:23:50.926Z,100437.12
2019-01-28T01:26:20.738Z,100422.52
2019-01-28T01:28:50.600Z,100422.66
2019-01-28T01:31:20.251Z,100415.28
2019-01-28T01:33:50.072Z,100417.20
2019-01-28T01:36:20.021Z,100414.52
2019-01-28T01:38:49.896Z,100408.86
2019-01-28T01:41:19.932Z,100402.94
2019-01-28T01:43:49.861Z,100411.17
2019-01-28T01:46:19.671Z,100409.29
2019-01-28T01:48:50.064Z,100412.00
2019-01-28T01:51:19.942Z,100412.19
2019-01-28T01:53:49.596Z,100410.25
2019-01-28T01:56:19.419Z,100413.45
2019-01-28T01:58:49.162Z,100419.56
2019-01-28T02:01:18.838Z,100414.73
2019-01-28T02:03:48.598Z,100414.52
2019-01-28T02:06:18.405Z,100414.86
2019-01-28T02:08:48.448Z,100404.06
2019-01-28T02:11:18.093Z,100406.36
2019-01-28T02:13:48.059Z,100407.34
2019-01-28T02:16:17.715Z,100405.08
2019-01-28T02:18:47.642Z,100413.53
2019-01-28T02:21:18.957Z,100405.38
2019-01-28T02:23:48.833Z,100404.08
2019-01-28T02:26:18.748Z,100405.91
2019-01-28T02:28:48.672Z,100413.09
2019-01-28T02:31:18.449Z,100416.75
2019-01-28T02:33:48.258Z,100418.34
2019-01-28T02:36:18.013Z,100418.42
2019-01-28T02:38:47.885Z,100417.02
2019-01-28T02:41:17.505Z,100416.33
2019-01-28T02:43:47.368Z,100421.53
2019-01-28T02:46:17.128Z,100425.59
2019-01-28T02:48:46.936Z,100419.05
2019-01-28T02:51:16.838Z,100416.80
2019-01-28T02:53:46.470Z,100421.53
2019-01-28T02:56:16.277Z,100409.22
2019-01-28T02:58:45.938Z,100407.53
2019-01-28T03:01:15.709Z,100401.12
2019-01-28T03:03:45.728Z,100401.69
2019-01-28T03:06:15.594Z,100395.55
2019-01-28T03:08:45.454Z,100405.09
2019-01-28T03:11:15.264Z,100389.81
2019-01-28T03:13:45.116Z,100400.09
2019-01-28T03:16:15.092Z,100400.53
2019-01-28T03:18:44.817Z,100405.49
2019-01-28T03:21:14.527Z,100401.30
2019-01-28T03:23:44.621Z,100397.96
2019-01-28T03:26:14.360Z,100393.27
2019-01-28T03:28:44.179Z,100389.42
2019-01-28T03:31:14.301Z,100392.44
2019-01-28T03:33:44.017Z,100403.59
2019-01-28T03:36:14.037Z,100391.72
2019-01-28T03:38:44.984Z,100400.13
2019-01-28T03:41:14.884Z,100402.75
2019-01-28T03:43:44.749Z,100402.75
2019-01-28T03:46:14.697Z,100398.75
2019-01-28T03:48:44.552Z,100401.56
2019-01-28T03:51:14.580Z,100397.19
2019-01-28T03:53:44.406Z,100388.44
2019-01-28T03:56:14.278Z,100393.62
2019-01-28T03:58:44.139Z,100389.05
2019-01-28T04:01:14.033Z,100389.45
2019-01-28T04:03:43.875Z,100378.22
2019-01-28T04:06:13.863Z,100382.06
2019-01-28T04:08:43.786Z,100387.59
2019-01-28T04:11:13.647Z,100394.41
2019-01-28T04:13:43.489Z,100398.62
2019-01-28T04:16:13.318Z,100408.40
2019-01-28T04:18:43.087Z,100404.88
2019-01-28T04:21:12.960Z,100414.30
2019-01-28T04:23:42.652Z,100418.10
2019-01-28T04:26:12.641Z,100417.66
2019-01-28T04:28:42.290Z,100414.65
2019-01-28T04:31:12.105Z,100415.41
2019-01-28T04:33:42.052Z,100416.65
2019-01-28T04:36:11.748Z,100411.64
2019-01-28T04:38:41.545Z,100406.99
2019-01-28T04:41:12.497Z,100406.55
2019-01-28T04:43:42.188Z,100396.11
2019-01-28T04:46:11.945Z,100396.83
2019-01-28T04:48:41.718Z,100395.05
2019-01-28T04:51:13.012Z,100392.53
2019-01-28T04:53:42.791Z,100387.08
2019-01-28T04:56:12.788Z,100378.54
2019-01-28T04:58:42.550Z,100382.75
2019-01-28T05:01:12.486Z,100378.73
2019-01-28T05:03:42.144Z,100378.41
2019-01-28T05:06:13.507Z,100379.79
2019-01-28T05:08:43.623Z,100375.72
2019-01-28T05:11:13.441Z,100381.73
2019-01-28T05:13:43.238Z,100376.29
2019-01-28T05:16:13.002Z,100377.89
2019-01-28T05:18:42.765Z,100385.86
2019-01-28T05:21:12.605Z,100386.65
2019-01-28T05:23:42.337Z,100389.17
2019-01-28T05:26:12.270Z,100389.98
2019-01-28T05:28:42.015Z,100393.03
2019-01-28T05:31:11.728Z,100384.27
2019-01-28T05:33:41.505Z,100387.09
2019-01-28T05:36:11.383Z,100388.61
2019-01-28T05:38:41.274Z,100380.98
2019-01-28T05:41:11.048Z,100377.74
2019-01-28T05:43:40.695Z,100385.63
2019-01-28T05:46:10.408Z,100382.69
2019-01-28T05:48:40.282Z,100379.80
2019-01-28T05:51:10.168Z,100376.91
2019-01-28T05:53:39.860Z,100345.29
2019-01-28T05:56:09.849Z,100383.15
2019-01-28T05:58:39.584Z,100374.66
2019-01-28T06:01:10.882Z,100386.37
2019-01-28T06:03:40.664Z,100383.97
2019-01-28T06:06:10.356Z,100385.34
2019-01-28T06:08:40.360Z,100386.06
2019-01-28T06:11:10.195Z,100382.95
2019-01-28T06:13:40.179Z,100373.95
2019-01-28T06:16:10.151Z,100387.05
2019-01-28T06:18:39.948Z,100382.16
2019-01-28T06:21:10.029Z,100376.41
2019-01-28T06:23:39.813Z,100378.30
2019-01-28T06:26:09.614Z,100371.75
2019-01-28T06:28:39.351Z,100371.80
2019-01-28T06:31:09.111Z,100373.42
2019-01-28T06:33:39.038Z,100365.34
2019-01-28T06:36:08.897Z,100369.34
2019-01-28T06:38:38.655Z,100369.80
2019-01-28T06:41:08.477Z,100370.25
2019-01-28T06:43:38.239Z,100370.19
2019-01-28T06:46:08.103Z,100369.73
2019-01-28T06:48:38.847Z,100367.90
2019-01-28T06:51:10.401Z,100364.63
2019-01-28T06:53:40.432Z,100365.42
2019-01-28T06:56:10.232Z,100364.95
2019-01-28T06:58:40.104Z,100355.38
2019-01-28T07:01:10.085Z,100354.13
2019-01-28T07:03:39.940Z,100347.78
2019-01-28T07:06:09.691Z,100351.64
2019-01-28T07:08:39.396Z,100338.20
2019-01-28T07:11:09.295Z,100341.09
2019-01-28T07:13:38.820Z,100346.84
2019-01-28T07:16:08.760Z,100339.13
2019-01-28T07:18:38.794Z,100339.38
2019-01-28T07:21:08.799Z,100334.17
2019-01-28T07:23:38.596Z,100337.80
2019-01-28T07:26:08.459Z,100342.33
2019-01-28T07:28:38.234Z,100342.97
2019-01-28T07:31:08.567Z,100343.30
2019-01-28T07:33:38.423Z,100344.98
2019-01-28T07:36:08.181Z,100341.61
2019-01-28T07:38:37.988Z,100341.53
2019-01-28T07:41:07.897Z,100347.09
2019-01-28T07:43:37.741Z,100347.55
2019-01-28T07:46:07.651Z,100341.28
2019-01-28T07:48:37.527Z,100341.14
2019-01-28T07:51:08.401Z,100338.75
2019-01-28T07:53:38.116Z,100344.27
2019-01-28T07:56:09.083Z,100347.89
2019-01-28T07:58:38.763Z,100348.19
2019-01-28T08:01:08.572Z,100344.58
2019-01-28T08:03:38.396Z,100346.36
2019-01-28T08:06:08.755Z,100343.73
2019-01-28T08:08:38.652Z,100346.01
2019-01-28T08:11:08.592Z,100345.94
2019-01-28T08:13:38.492Z,100345.37
2019-01-28T08:16:08.298Z,100335.98
2019-01-28T08:18:38.336Z,100332.28
2019-01-28T08:21:08.220Z,100326.38
2019-01-28T08:23:38.031Z,100325.84
2019-01-28T08:26:07.984Z,100325.21
2019-01-28T08:28:37.757Z,100333.38
2019-01-28T08:31:07.519Z,100332.73
2019-01-28T08:33:37.288Z,100331.55
2019-01-28T08:36:07.101Z,100330.77
2019-01-28T08:38:36.857Z,100328.19
2019-01-28T08:41:06.523Z,100326.20
2019-01-28T08:43:36.125Z,100322.22
2019-01-28T08:46:05.818Z,100317.12
2019-01-28T08:48:35.556Z,100321.50
2019-01-28T08:51:05.264Z,100314.59
2019-01-28T08:53:35.218Z,100315.72
2019-01-28T08:56:05.661Z,100311.94
2019-01-28T08:58:35.407Z,100311.44
2019-01-28T09:01:05.372Z,100318.67
2019-01-28T09:03:35.285Z,100313.46
2019-01-28T09:06:05.224Z,100310.10
2019-01-28T09:08:35.142Z,100305.86
2019-01-28T09:11:05.340Z,100307.17
2019-01-28T09:13:35.153Z,100308.38
2019-01-28T09:16:05.295Z,100309.30
2019-01-28T09:18:35.113Z,100307.39
2019-01-28T09:21:05.001Z,100308.72
2019-01-28T09:23:34.983Z,100312.37
2019-01-28T09:26:06.595Z,100299.61
2019-01-28T09:28:36.370Z,100293.27
2019-01-28T09:31:07.539Z,100294.47
2019-01-28T09:33:37.453Z,100292.30
2019-01-28T09:36:07.689Z,100294.03
2019-01-28T09:38:37.518Z,100289.13
2019-01-28T09:41:07.517Z,100291.02
2019-01-28T09:43:37.634Z,100278.84
2019-01-28T09:46:07.465Z,100280.48
2019-01-28T09:48:37.366Z,100281.39
2019-01-28T09:51:07.386Z,100280.82
2019-01-28T09:53:37.227Z,100281.42
2019-01-28T09:56:07.146Z,100274.05
2019-01-28T09:58:37.240Z,100276.98
2019-01-28T10:01:07.105Z,100279.16
2019-01-28T10:03:36.964Z,100280.43
2019-01-28T10:06:07.002Z,100272.88
2019-01-28T10:08:36.828Z,100267.41
2019-01-28T10:11:06.750Z,100259.41
2019-01-28T10:13:36.255Z,100263.61
2019-01-28T10:16:05.903Z,100263.20
2019-01-28T10:18:41.787Z,100254.34
2019-01-28T10:21:06.830Z,100251.62
2019-01-28T10:23:36.637Z,100243.25
2019-01-28T10:26:06.482Z,100241.22
2019-01-28T10:28:36.322Z,100235.44
2019-01-28T10:31:06.821Z,100228.22
2019-01-28T10:33:36.686Z,100228.18
2019-01-28T10:36:06.678Z,100215.78
2019-01-28T10:38:36.564Z,100218.81
2019-01-28T10:41:06.684Z,100212.15
2019-01-28T10:43:36.556Z,100202.48
2019-01-28T10:46:06.474Z,100198.70
2019-01-28T10:48:36.599Z,100198.03
2019-01-28T10:51:06.699Z,100186.69
2019-01-28T10:53:36.453Z,100183.25
2019-01-28T10:56:06.534Z,100181.46
2019-01-28T10:58:36.252Z,100176.66
2019-01-28T11:01:07.395Z,100172.13
2019-01-28T11:03:37.201Z,100171.35
2019-01-28T11:06:07.121Z,100161.05
2019-01-28T11:08:37.106Z,100146.85
2019-01-28T11:11:07.300Z,100153.94
2019-01-28T11:13:36.981Z,100153.36
2019-01-28T11:16:07.191Z,100146.85
2019-01-28T11:18:37.108Z,100143.41
2019-01-28T11:21:07.023Z,100144.00
2019-01-28T11:23:38.139Z,100131.48
2019-01-28T11:26:08.137Z,100126.14
2019-01-28T11:28:38.019Z,100122.02
2019-01-28T11:31:11.603Z,100113.01
2019-01-28T11:33:41.344Z,100113.15
2019-01-28T11:36:12.375Z,100113.62
2019-01-28T11:38:42.300Z,100104.63
2019-01-28T11:41:12.108Z,100103.08
2019-01-28T11:43:41.883Z,100101.39
2019-01-28T11:46:12.027Z,100086.75
2019-01-28T11:48:41.836Z,100100.31
2019-01-28T11:51:11.725Z,100106.49
2019-01-28T11:53:41.491Z,100096.55
2019-01-28T11:56:11.508Z,100084.14
2019-01-28T11:58:41.472Z,100097.84
2019-01-28T12:01:33.650Z,100083.06
2019-01-28T12:04:04.847Z,100097.96
2019-01-28T12:06:34.917Z,100082.48
2019-01-28T12:09:07.581Z,100090.38
2019-01-28T12:11:37.264Z,100086.36
2019-01-28T12:14:07.468Z,100082.09
2019-01-28T12:16:37.250Z,100083.25
2019-01-28T12:19:13.954Z,100080.17
2019-01-28T12:21:38.615Z,100087.98
2019-01-28T12:24:08.348Z,100083.75
2019-01-28T12:26:38.614Z,100071.20
2019-01-28T12:29:08.359Z,100081.22
2019-01-28T12:31:38.026Z,100084.79
2019-01-28T12:34:08.087Z,100074.28
2019-01-28T12:36:37.903Z,100086.22
2019-01-28T12:39:09.607Z,100080.13
2019-01-28T12:41:39.605Z,100093.03
2019-01-28T12:44:09.623Z,100084.74
2019-01-28T12:46:39.601Z,100088.89
2019-01-28T12:49:09.665Z,100076.83
2019-01-28T12:51:39.585Z,100087.23
2019-01-28T12:54:09.531Z,100082.51
2019-01-28T12:56:39.466Z,100083.17
2019-01-28T12:59:10.572Z,100089.80
2019-01-28T13:01:40.348Z,100088.30
2019-01-28T13:04:10.171Z,100086.63
2019-01-28T13:06:39.919Z,100080.48
2019-01-28T13:09:10.561Z,100076.36
2019-01-28T13:11:40.551Z,100081.92
2019-01-28T13:14:10.619Z,100078.70
2019-01-28T13:16:40.370Z,100067.13
2019-01-28T13:19:10.205Z,100070.44
2019-01-28T13:21:41.483Z,100075.06
2019-01-28T13:24:11.232Z,100060.28
2019-01-28T13:26:40.858Z,100056.38
2019-01-28T13:29:10.726Z,100060.96
2019-01-28T13:31:40.710Z,100055.78
2019-01-28T13:34:10.490Z,100068.19
2019-01-28T13:36:40.798Z,100069.04
2019-01-28T13:39:10.685Z,100060.98
2019-01-28T13:41:40.451Z,100058.62
2019-01-28T13:44:10.099Z,100070.81
2019-01-28T13:46:39.786Z,100059.70
2019-01-28T13:49:09.713Z,100069.75
2019-01-28T13:51:39.677Z,100078.27
2019-01-28T13:54:09.855Z,100076.03
2019-01-28T13:56:39.945Z,100071.75
2019-01-28T13:59:16.184Z,100080.14
2019-01-28T14:01:41.730Z,100074.13
2019-01-28T14:04:11.441Z,100075.30
2019-01-28T14:06:41.196Z,100075.43
2019-01-28T14:09:11.092Z,100079.45
2019-01-28T14:11:40.909Z,100084.40
2019-01-28T14:14:10.963Z,100078.27
2019-01-28T14:16:40.718Z,100083.70
2019-01-28T14:19:10.324Z,100079.44
2019-01-28T14:21:40.215Z,100075.66
2019-01-28T14:24:10.197Z,100084.16
2019-01-28T14:26:40.106Z,100080.03
2019-01-28T14:29:09.942Z,100078.00
2019-01-28T14:31:39.805Z,100075.17
2019-01-28T14:34:09.452Z,100073.41
2019-01-28T14:36:39.399Z,100077.39
2019-01-28T14:39:13.773Z,100077.73
2019-01-28T14:41:44.819Z,100084.09
2019-01-28T14:44:14.643Z,100080.44
2019-01-28T14:46:44.436Z,100077.01
2019-01-28T14:49:14.416Z,100069.91
2019-01-28T14:51:44.181Z,100074.80
2019-01-28T14:54:14.065Z,100073.00
2019-01-28T14:56:43.808Z,100069.34
2019-01-28T14:59:13.620Z,100076.25
2019-01-28T15:01:43.484Z,100072.41
2019-01-28T15:04:13.137Z,100071.34
2019-01-28T15:06:42.969Z,100076.05
2019-01-28T15:09:14.593Z,100073.45
2019-01-28T15:11:44.454Z,100074.59
2019-01-28T15:14:14.237Z,100064.66
2019-01-28T15:16:44.208Z,100071.16
2019-01-28T15:19:14.053Z,100072.59
2019-01-28T15:21:43.779Z,100069.03
2019-01-28T15:24:14.775Z,100067.73
2019-01-28T15:26:44.576Z,100071.89
2019-01-28T15:29:14.443Z,100073.77
2019-01-28T15:31:45.531Z,100074.30
2019-01-28T15:34:15.332Z,100068.84
2019-01-28T15:36:46.456Z,100074.03
2019-01-28T15:39:16.369Z,100073.47
2019-01-28T15:41:46.185Z,100062.14
2019-01-28T15:44:16.083Z,100063.98
2019-01-28T15:46:45.808Z,100060.34
2019-01-28T15:49:15.709Z,100057.75
2019-01-28T15:51:45.545Z,100063.28
2019-01-28T15:54:15.453Z,100056.19
2019-01-28T15:56:45.518Z,100067.98
2019-01-28T15:59:15.287Z,100065.84
2019-01-28T16:01:45.105Z,100058.09
2019-01-28T16:04:14.873Z,100049.56
2019-01-28T16:06:44.631Z,100063.98
2019-01-28T16:09:14.449Z,100054.52
2019-01-28T16:11:44.308Z,100051.09
2019-01-28T16:14:14.193Z,100060.66
2019-01-28T16:16:44.060Z,100055.13
2019-01-28T16:19:14.136Z,100054.06
2019-01-28T16:21:44.230Z,100057.02
2019-01-28T16:24:14.094Z,100061.52
2019-01-28T16:26:43.781Z,100060.42
2019-01-28T16:29:13.595Z,100065.71
2019-01-28T16:31:43.447Z,100065.58
2019-01-28T16:34:13.331Z,100062.14
2019-01-28T16:36:43.225Z,100063.80
2019-01-28T16:39:13.286Z,100065.80
2019-01-28T16:41:43.104Z,100066.00
2019-01-28T16:44:13.577Z,100063.02
2019-01-28T16:46:43.210Z,100051.06
2019-01-28T16:49:14.126Z,100059.42
2019-01-28T16:51:44.009Z,100052.73
2019-01-28T16:54:13.867Z,100044.02
2019-01-28T16:56:43.790Z,100053.47
2019-01-28T16:59:13.748Z,100042.86
2019-01-28T17:01:43.616Z,100051.34
2019-01-28T17:04:13.230Z,100050.41
2019-01-28T17:06:43.103Z,100052.41
2019-01-28T17:09:13.075Z,100052.08
2019-01-28T17:11:43.095Z,100048.84
2019-01-28T17:14:13.046Z,100046.25
2019-01-28T17:16:42.837Z,100045.27
2019-01-28T17:19:12.729Z,100031.35
2019-01-28T17:21:42.583Z,100032.55
2019-01-28T17:24:13.594Z,100042.27
2019-01-28T17:26:43.565Z,100038.84
2019-01-28T17:29:13.311Z,100034.52
2019-01-28T17:31:43.146Z,100034.25
2019-01-28T17:34:12.987Z,100039.10
2019-01-28T17:36:42.659Z,100043.47
2019-01-28T17:39:12.472Z,100041.57
2019-01-28T17:41:42.237Z,100041.34
2019-01-28T17:44:12.116Z,100051.73
2019-01-28T17:46:41.810Z,100040.14
2019-01-28T17:49:11.577Z,100048.13
2019-01-28T17:51:41.330Z,100051.70
2019-01-28T17:54:12.295Z,100057.39
2019-01-28T17:56:42.140Z,100050.50
2019-01-28T17:59:12.234Z,100054.29
2019-01-28T18:01:42.024Z,100052.86
2019-01-28T18:04:11.791Z,100053.56
2019-01-28T18:06:41.560Z,100047.90
2019-01-28T18:09:11.778Z,100043.07
2019-01-28T18:11:41.638Z,100038.58
2019-01-28T18:14:11.425Z,100043.77
2019-01-28T18:16:41.122Z,100044.27
2019-01-28T18:19:12.606Z,100048.30
2019-01-28T18:21:42.300Z,100040.27
2019-01-28T18:24:12.169Z,100031.91
2019-01-28T18:26:42.058Z,100039.94
2019-01-28T18:29:11.829Z,100039.59
2019-01-28T18:31:41.632Z,100043.39
2019-01-28T18:34:11.260Z,100036.77
2019-01-28T18:36:41.136Z,100041.13
2019-01-28T18:39:13.216Z,100050.48
2019-01-28T18:41:42.992Z,100041.03
2019-01-28T18:44:12.762Z,100039.83
2019-01-28T18:46:42.637Z,100051.89
2019-01-28T18:49:12.720Z,100038.17
2019-01-28T18:51:42.518Z,100042.06
2019-01-28T18:54:12.486Z,100043.84
2019-01-28T18:56:42.241Z,100035.08
2019-01-28T18:59:11.863Z,100036.61
2019-01-28T19:01:41.712Z,100039.08
2019-01-28T19:04:11.476Z,100040.27
2019-01-28T19:07:03.288Z,100035.55
2019-01-28T19:10:00.914Z,100048.66
2019-01-28T19:12:47.187Z,100046.89
2019-01-28T19:15:38.990Z,100048.19
2019-01-28T19:18:34.909Z,100047.36
2019-01-28T19:21:18.182Z,100046.66
2019-01-28T19:23:48.148Z,100049.39
2019-01-28T19:26:17.912Z,100056.59
2019-01-28T19:28:47.802Z,100051.27
2019-01-28T19:31:18.708Z,100055.13
2019-01-28T19:33:49.847Z,100057.72
2019-01-28T19:36:19.815Z,100056.39
2019-01-28T19:38:49.670Z,100057.45
2019-01-28T19:41:19.556Z,100049.39
2019-01-28T19:43:49.349Z,100059.55
2019-01-28T19:46:20.526Z,100051.29
2019-01-28T19:48:50.439Z,100052.82
2019-01-28T19:51:20.345Z,100053.33
2019-01-28T19:53:50.193Z,100057.35
2019-01-28T19:56:19.979Z,100059.52
2019-01-28T19:58:49.948Z,100054.22
2019-01-28T20:01:19.872Z,100060.78
2019-01-28T20:03:49.843Z,100060.72
2019-01-28T20:06:19.567Z,100063.52
2019-01-28T20:08:49.465Z,100054.09
2019-01-28T20:11:19.380Z,100062.48
2019-01-28T20:13:49.355Z,100061.42
2019-01-28T20:16:19.192Z,100059.16
2019-01-28T20:18:48.909Z,100068.14
2019-01-28T20:21:23.627Z,100068.98
2019-01-28T20:23:50.390Z,100066.38
2019-01-28T20:26:20.289Z,100069.70
2019-01-28T20:28:49.959Z,100070.95
2019-01-28T20:31:20.191Z,100067.52
2019-01-28T20:33:50.055Z,100074.84
2019-01-28T20:36:19.815Z,100086.20
2019-01-28T20:38:49.571Z,100081.47
2019-01-28T20:41:19.510Z,100082.55
2019-01-28T20:43:49.560Z,100089.27
2019-01-28T20:46:19.545Z,100090.33
2019-01-28T20:48:49.286Z,100092.36
2019-01-28T20:51:19.080Z,100089.91
2019-01-28T20:53:48.926Z,100091.58
2019-01-28T20:56:18.715Z,100096.03
2019-01-28T20:58:48.525Z,100095.66
2019-01-28T21:01:18.380Z,100097.52
2019-01-28T21:03:48.161Z,100100.58
2019-01-28T21:06:18.394Z,100103.58
2019-01-28T21:08:48.461Z,100097.33
2019-01-28T21:11:18.283Z,100091.95
2019-01-28T21:13:48.238Z,100095.15
2019-01-28T21:16:19.723Z,100097.84
2019-01-28T21:18:49.465Z,100096.02
2019-01-28T21:21:19.197Z,100093.28
2019-01-28T21:23:50.281Z,100098.47
2019-01-28T21:26:20.061Z,100097.86
2019-01-28T21:28:49.862Z,100095.52
2019-01-28T21:31:19.803Z,100099.18
2019-01-28T21:33:49.583Z,100096.86
2019-01-28T21:36:28.871Z,100100.67
2019-01-28T21:38:59.760Z,100102.20
2019-01-28T21:41:29.875Z,100095.02
2019-01-28T21:44:00.933Z,100091.27
2019-01-28T21:46:30.736Z,100105.08
2019-01-28T21:49:00.451Z,100094.83
2019-01-28T21:51:30.332Z,100103.08
2019-01-28T21:54:00.140Z,100096.26
2019-01-28T21:56:29.794Z,100093.02
2019-01-28T21:58:59.619Z,100094.96
2019-01-28T22:01:30.771Z,100091.77
2019-01-28T22:04:00.501Z,100091.20
2019-01-28T22:06:30.373Z,100092.97
2019-01-28T22:09:00.085Z,100097.01
2019-01-28T22:11:29.733Z,100102.23
2019-01-28T22:13:59.612Z,100102.11
2019-01-28T22:16:29.763Z,100099.64
2019-01-28T22:18:59.597Z,100094.09
2019-01-28T22:21:29.367Z,100095.23
2019-01-28T22:23:59.196Z,100099.78
2019-01-28T22:26:29.359Z,100096.20
2019-01-28T22:28:59.119Z,100112.00
2019-01-28T22:31:28.921Z,100097.64
2019-01-28T22:33:59.814Z,100106.12
2019-01-28T22:36:30.115Z,100112.09
2019-01-28T22:39:00.575Z,100105.45
2019-01-28T22:41:31.611Z,100109.67
2019-01-28T22:44:01.395Z,100102.03
2019-01-28T22:46:31.188Z,100097.29
2019-01-28T22:49:01.072Z,100103.02
2019-01-28T22:51:30.992Z,100102.80
2019-01-28T22:54:00.870Z,100097.55
2019-01-28T22:56:30.935Z,100100.52
2019-01-28T22:59:00.692Z,100099.07
2019-01-28T23:01:41.276Z,100099.17
2019-01-28T23:04:11.162Z,100099.92
2019-01-28T23:06:41.071Z,100101.22
2019-01-28T23:09:11.332Z,100104.95
2019-01-28T23:11:41.013Z,100101.92
2019-01-28T23:14:11.005Z,100092.81
2019-01-28T23:16:40.680Z,100096.86
2019-01-28T23:19:10.620Z,100091.41
2019-01-28T23:21:40.464Z,100099.33
2019-01-28T23:24:10.405Z,100093.00
2019-01-28T23:26:40.238Z,100099.33
2019-01-28T23:29:10.136Z,100096.41
2019-01-28T23:31:40.042Z,100104.19
2019-01-28T23:34:10.123Z,100102.98
2019-01-28T23:36:40.173Z,100108.62
2019-01-28T23:39:10.324Z,100110.37
2019-01-28T23:41:40.062Z,100108.96
2019-01-28T23:44:09.813Z,100110.08
2019-01-28T23:46:39.668Z,100112.23
2019-01-28T23:49:09.614Z,100117.83
2019-01-28T23:51:39.268Z,100113.48
2019-01-28T23:54:09.216Z,100120.59
2019-01-28T23:56:38.940Z,100120.41
2019-01-28T23:59:08.616Z,100128.95
